sensor_id;sensor_type;location;lat;lon;timestamp;pressure;altitude;pressure_sealevel;temperature;humidity
57572;BME280;44459;43.522;24.470;2023-05-07T00:01:12;100501.44;;;10.82;90.17
57572;BME280;44459;43.522;24.470;2023-05-07T00:03:38;100498.72;;;10.74;90.22
57572;BME280;44459;43.522;24.470;2023-05-07T00:06:04;100506.63;;;10.74;88.65
57572;BME280;44459;43.522;24.470;2023-05-07T00:08:29;100491.53;;;10.63;89.37
57572;BME280;44459;43.522;24.470;2023-05-07T00:10:55;100499.50;;;10.66;89.57
57572;BME280;44459;43.522;24.470;2023-05-07T00:13:20;100503.94;;;10.68;90.02
57572;BME280;44459;43.522;24.470;2023-05-07T00:15:46;100499.56;;;10.69;89.85
57572;BME280;44459;43.522;24.470;2023-05-07T00:18:11;100496.91;;;10.69;89.72
57572;BME280;44459;43.522;24.470;2023-05-07T00:20:37;100509.19;;;10.67;89.90
57572;BME280;44459;43.522;24.470;2023-05-07T00:23:02;100508.31;;;10.66;90.69
57572;BME280;44459;43.522;24.470;2023-05-07T00:25:28;100510.06;;;10.64;90.64
57572;BME280;44459;43.522;24.470;2023-05-07T00:27:53;100502.09;;;10.63;90.40
57572;BME280;44459;43.522;24.470;2023-05-07T00:30:19;100500.38;;;10.62;91.14
57572;BME280;44459;43.522;24.470;2023-05-07T00:32:44;100506.56;;;10.65;92.99
57572;BME280;44459;43.522;24.470;2023-05-07T00:35:14;100503.81;;;10.59;93.10
57572;BME280;44459;43.522;24.470;2023-05-07T00:37:39;100492.31;;;10.52;92.51
57572;BME280;44459;43.522;24.470;2023-05-07T00:40:05;100500.25;;;10.52;93.84
57572;BME280;44459;43.522;24.470;2023-05-07T00:42:32;100493.00;;;10.35;93.36
57572;BME280;44459;43.522;24.470;2023-05-07T00:44:58;100494.75;;;10.33;92.92
57572;BME280;44459;43.522;24.470;2023-05-07T00:47:25;100487.72;;;10.32;92.88
57572;BME280;44459;43.522;24.470;2023-05-07T00:49:51;100493.78;;;10.25;92.84
57572;BME280;44459;43.522;24.470;2023-05-07T00:52:17;100497.25;;;10.21;93.13
57572;BME280;44459;43.522;24.470;2023-05-07T00:54:45;100486.53;;;10.08;94.08
57572;BME280;44459;43.522;24.470;2023-05-07T00:57:10;100498.94;;;10.14;93.91
57572;BME280;44459;43.522;24.470;2023-05-07T00:59:36;100500.81;;;10.23;93.87
57572;BME280;44459;43.522;24.470;2023-05-07T01:02:02;100506.09;;;10.23;93.27
57572;BME280;44459;43.522;24.470;2023-05-07T01:04:27;100505.19;;;10.22;91.97
57572;BME280;44459;43.522;24.470;2023-05-07T01:06:55;100506.06;;;10.21;92.38
57572;BME280;44459;43.522;24.470;2023-05-07T01:09:22;100503.56;;;10.33;91.86
57572;BME280;44459;43.522;24.470;2023-05-07T01:11:49;100499.22;;;10.37;92.26
57572;BME280;44459;43.522;24.470;2023-05-07T01:14:16;100494.78;;;10.34;92.67
57572;BME280;44459;43.522;24.470;2023-05-07T01:16:42;100494.78;;;10.36;92.50
57572;BME280;44459;43.522;24.470;2023-05-07T01:19:11;100500.97;;;10.38;92.47
57572;BME280;44459;43.522;24.470;2023-05-07T01:21:45;100489.53;;;10.34;93.25
57572;BME280;44459;43.522;24.470;2023-05-07T01:24:11;100489.47;;;10.33;94.18
57572;BME280;44459;43.522;24.470;2023-05-07T01:26:38;100488.56;;;10.29;94.48
57572;BME280;44459;43.522;24.470;2023-05-07T01:29:04;100485.91;;;10.28;94.14
57572;BME280;44459;43.522;24.470;2023-05-07T01:31:29;100482.28;;;10.17;95.22
57572;BME280;44459;43.522;24.470;2023-05-07T01:33:56;100482.19;;;10.12;95.85
57572;BME280;44459;43.522;24.470;2023-05-07T01:36:25;100474.19;;;10.07;96.46
57572;BME280;44459;43.522;24.470;2023-05-07T01:38:52;100482.13;;;10.06;97.06
57572;BME280;44459;43.522;24.470;2023-05-07T01:41:19;100474.16;;;10.04;98.05
57572;BME280;44459;43.522;24.470;2023-05-07T01:43:45;100474.22;;;10.10;98.03
57572;BME280;44459;43.522;24.470;2023-05-07T01:46:11;100472.47;;;10.06;98.29
57572;BME280;44459;43.522;24.470;2023-05-07T01:48:37;100469.75;;;10.02;98.21
57572;BME280;44459;43.522;24.470;2023-05-07T01:51:04;100470.59;;;10.01;98.16
57572;BME280;44459;43.522;24.470;2023-05-07T01:53:35;100478.56;;;10.02;98.21
57572;BME280;44459;43.522;24.470;2023-05-07T01:56:01;100469.69;;;9.97;98.58
57572;BME280;44459;43.522;24.470;2023-05-07T01:58:27;100473.25;;;9.99;98.83
57572;BME280;44459;43.522;24.470;2023-05-07T02:00:52;100469.72;;;10.00;99.44
57572;BME280;44459;43.522;24.470;2023-05-07T02:03:18;100467.91;;;9.96;99.25
57572;BME280;44459;43.522;24.470;2023-05-07T02:05:43;100463.53;;;9.95;98.90
57572;BME280;44459;43.522;24.470;2023-05-07T02:08:08;100466.13;;;9.94;97.71
57572;BME280;44459;43.522;24.470;2023-05-07T02:10:34;100457.28;;;9.89;97.70
57572;BME280;44459;43.522;24.470;2023-05-07T02:13:01;100449.28;;;9.81;98.73
57572;BME280;44459;43.522;24.470;2023-05-07T02:15:27;100452.75;;;9.77;99.50
57572;BME280;44459;43.522;24.470;2023-05-07T02:18:01;100454.38;;;9.69;99.69
57572;BME280;44459;43.522;24.470;2023-05-07T02:20:26;100449.94;;;9.64;100.00
57572;BME280;44459;43.522;24.470;2023-05-07T02:22:52;100456.91;;;9.61;100.00
57572;BME280;44459;43.522;24.470;2023-05-07T02:25:17;100461.31;;;9.61;100.00
57572;BME280;44459;43.522;24.470;2023-05-07T02:27:43;100461.31;;;9.61;100.00
57572;BME280;44459;43.522;24.470;2023-05-07T02:30:08;100452.50;;;9.59;100.00
57572;BME280;44459;43.522;24.470;2023-05-07T02:32:34;100457.78;;;9.60;100.00
57572;BME280;44459;43.522;24.470;2023-05-07T02:34:59;100446.41;;;9.63;100.00
57572;BME280;44459;43.522;24.470;2023-05-07T02:37:25;100438.47;;;9.60;100.00
57572;BME280;44459;43.522;24.470;2023-05-07T02:39:50;100450.72;;;9.58;100.00
57572;BME280;44459;43.522;24.470;2023-05-07T02:42:16;100448.88;;;9.51;100.00
57572;BME280;44459;43.522;24.470;2023-05-07T02:44:41;100450.53;;;9.44;100.00
57572;BME280;44459;43.522;24.470;2023-05-07T02:47:06;100454.09;;;9.46;100.00
57572;BME280;44459;43.522;24.470;2023-05-07T02:49:33;100449.72;;;9.47;100.00
57572;BME280;44459;43.522;24.470;2023-05-07T02:51:59;100457.56;;;9.44;100.00
57572;BME280;44459;43.522;24.470;2023-05-07T02:54:24;100453.97;;;9.39;100.00
57572;BME280;44459;43.522;24.470;2023-05-07T02:56:50;100458.38;;;9.41;100.00
57572;BME280;44459;43.522;24.470;2023-05-07T02:59:15;100446.03;;;9.37;100.00
57572;BME280;44459;43.522;24.470;2023-05-07T03:01:41;100463.69;;;9.43;100.00
57572;BME280;44459;43.522;24.470;2023-05-07T03:04:09;100461.00;;;9.38;100.00
57572;BME280;44459;43.522;24.470;2023-05-07T03:06:35;100462.78;;;9.41;100.00
57572;BME280;44459;43.522;24.470;2023-05-07T03:09:00;100463.69;;;9.44;100.00
57572;BME280;44459;43.522;24.470;2023-05-07T03:11:25;100468.03;;;9.41;100.00
57572;BME280;44459;43.522;24.470;2023-05-07T03:13:51;100469.75;;;9.36;100.00
57572;BME280;44459;43.522;24.470;2023-05-07T03:16:16;100459.13;;;9.30;100.00
57572;BME280;44459;43.522;24.470;2023-05-07T03:18:42;100466.97;;;9.28;100.00
57572;BME280;44459;43.522;24.470;2023-05-07T03:21:07;100465.41;;;9.39;100.00
57572;BME280;44459;43.522;24.470;2023-05-07T03:23:32;100469.91;;;9.46;100.00
57572;BME280;44459;43.522;24.470;2023-05-07T03:25:58;100465.53;;;9.48;100.00
57572;BME280;44459;43.522;24.470;2023-05-07T03:28:23;100463.78;;;9.49;100.00
57572;BME280;44459;43.522;24.470;2023-05-07T03:30:49;100475.22;;;9.49;100.00
57572;BME280;44459;43.522;24.470;2023-05-07T03:33:14;100469.91;;;9.46;100.00
57572;BME280;44459;43.522;24.470;2023-05-07T03:35:40;100471.63;;;9.46;100.00
57572;BME280;44459;43.522;24.470;2023-05-07T03:38:07;100471.56;;;9.40;100.00
57572;BME280;44459;43.522;24.470;2023-05-07T03:40:32;100477.81;;;9.46;100.00
57572;BME280;44459;43.522;24.470;2023-05-07T03:42:59;100480.56;;;9.54;100.00
57572;BME280;44459;43.522;24.470;2023-05-07T03:45:25;100480.63;;;9.60;100.00
57572;BME280;44459;43.522;24.470;2023-05-07T03:47:51;100478.88;;;9.62;100.00
57572;BME280;44459;43.522;24.470;2023-05-07T03:50:16;100488.75;;;9.77;100.00
57572;BME280;44459;43.522;24.470;2023-05-07T03:52:42;100480.03;;;9.82;100.00
57572;BME280;44459;43.522;24.470;2023-05-07T03:55:08;100475.78;;;9.93;100.00
57572;BME280;44459;43.522;24.470;2023-05-07T03:57:33;100490.91;;;10.06;100.00
57572;BME280;44459;43.522;24.470;2023-05-07T03:59:58;100485.78;;;10.16;100.00
57572;BME280;44459;43.522;24.470;2023-05-07T04:02:24;100492.09;;;10.31;100.00
57572;BME280;44459;43.522;24.470;2023-05-07T04:04:49;100494.00;;;10.43;100.00
57572;BME280;44459;43.522;24.470;2023-05-07T04:07:15;100495.91;;;10.57;100.00
57572;BME280;44459;43.522;24.470;2023-05-07T04:09:41;100499.56;;;10.69;100.00
57572;BME280;44459;43.522;24.470;2023-05-07T04:12:06;100491.72;;;10.81;100.00
57572;BME280;44459;43.522;24.470;2023-05-07T04:14:32;100498.91;;;10.97;100.00
57572;BME280;44459;43.522;24.470;2023-05-07T04:16:58;100496.34;;;11.07;100.00
57572;BME280;44459;43.522;24.470;2023-05-07T04:19:24;100513.22;;;11.25;99.80
57572;BME280;44459;43.522;24.470;2023-05-07T04:21:50;100516.84;;;11.36;99.49
57572;BME280;44459;43.522;24.470;2023-05-07T04:24:15;100498.41;;;11.42;98.12
57572;BME280;44459;43.522;24.470;2023-05-07T04:26:41;100509.03;;;11.51;97.48
57572;BME280;44459;43.522;24.470;2023-05-07T04:29:06;100517.88;;;11.57;97.06
57572;BME280;44459;43.522;24.470;2023-05-07T04:31:32;100516.19;;;11.70;97.89
57572;BME280;44459;43.522;24.470;2023-05-07T04:33:58;100515.44;;;11.85;98.32
57572;BME280;44459;43.522;24.470;2023-05-07T04:36:23;100514.69;;;12.07;98.68
57572;BME280;44459;43.522;24.470;2023-05-07T04:38:52;100506.78;;;12.25;97.83
57572;BME280;44459;43.522;24.470;2023-05-07T04:41:18;100521.88;;;12.50;96.92
57572;BME280;44459;43.522;24.470;2023-05-07T04:43:43;100523.69;;;12.71;95.62
57572;BME280;44459;43.522;24.470;2023-05-07T04:46:09;100524.63;;;12.93;95.45
57572;BME280;44459;43.522;24.470;2023-05-07T04:48:35;100527.25;;;13.02;93.01
57572;BME280;44459;43.522;24.470;2023-05-07T04:51:01;100525.56;;;13.24;91.85
57572;BME280;44459;43.522;24.470;2023-05-07T04:53:27;100524.66;;;13.41;90.85
57572;BME280;44459;43.522;24.470;2023-05-07T04:55:56;100535.25;;;13.67;89.00
57572;BME280;44459;43.522;24.470;2023-05-07T04:58:22;100536.09;;;13.84;89.33
57572;BME280;44459;43.522;24.470;2023-05-07T05:00:48;100536.91;;;14.03;88.79
57572;BME280;44459;43.522;24.470;2023-05-07T05:03:13;100532.44;;;14.22;88.99
57572;BME280;44459;43.522;24.470;2023-05-07T05:05:39;100527.97;;;14.34;88.44
57572;BME280;44459;43.522;24.470;2023-05-07T05:08:04;100531.44;;;14.48;87.61
57572;BME280;44459;43.522;24.470;2023-05-07T05:10:30;100533.09;;;14.69;88.44
57572;BME280;44459;43.522;24.470;2023-05-07T05:12:55;100530.38;;;14.84;86.09
57572;BME280;44459;43.522;24.470;2023-05-07T05:15:21;100532.91;;;14.99;85.06
57572;BME280;44459;43.522;24.470;2023-05-07T05:17:46;100533.69;;;15.13;84.29
57572;BME280;44459;43.522;24.470;2023-05-07T05:20:11;100529.13;;;15.31;83.00
57572;BME280;44459;43.522;24.470;2023-05-07T05:22:37;100531.66;;;15.46;83.78
57572;BME280;44459;43.522;24.470;2023-05-07T05:25:03;100534.25;;;15.56;79.96
57572;BME280;44459;43.522;24.470;2023-05-07T05:27:29;100541.19;;;15.76;80.92
57572;BME280;44459;43.522;24.470;2023-05-07T05:29:54;100552.50;;;15.94;77.97
57572;BME280;44459;43.522;24.470;2023-05-07T05:32:20;100547.81;;;16.16;77.23
57572;BME280;44459;43.522;24.470;2023-05-07T05:34:45;100552.94;;;16.33;77.33
57572;BME280;44459;43.522;24.470;2023-05-07T05:37:11;100545.00;;;16.31;73.26
57572;BME280;44459;43.522;24.470;2023-05-07T05:39:36;100557.13;;;16.55;76.05
57572;BME280;44459;43.522;24.470;2023-05-07T05:42:02;100555.06;;;16.77;74.52
57572;BME280;44459;43.522;24.470;2023-05-07T05:44:27;100554.06;;;16.84;76.27
57572;BME280;44459;43.522;24.470;2023-05-07T05:46:53;100557.56;;;16.89;75.03
57572;BME280;44459;43.522;24.470;2023-05-07T05:49:20;100556.72;;;16.87;73.82
57572;BME280;44459;43.522;24.470;2023-05-07T05:51:46;100558.50;;;16.85;72.81
57572;BME280;44459;43.522;24.470;2023-05-07T05:54:11;100560.91;;;17.03;73.47
57572;BME280;44459;43.522;24.470;2023-05-07T05:56:37;100553.03;;;16.95;70.91
57572;BME280;44459;43.522;24.470;2023-05-07T05:59:03;100551.03;;;17.09;72.97
57572;BME280;44459;43.522;24.470;2023-05-07T06:01:28;100550.59;;;17.37;68.29
57572;BME280;44459;43.522;24.470;2023-05-07T06:03:54;100545.91;;;17.51;67.39
57572;BME280;44459;43.522;24.470;2023-05-07T06:06:19;100541.09;;;17.73;68.39
57572;BME280;44459;43.522;24.470;2023-05-07T06:08:45;100546.06;;;17.92;67.97
57572;BME280;44459;43.522;24.470;2023-05-07T06:11:11;100540.28;;;18.15;68.61
57572;BME280;44459;43.522;24.470;2023-05-07T06:13:36;100542.56;;;18.35;64.66
57572;BME280;44459;43.522;24.470;2023-05-07T06:16:02;100547.00;;;18.36;65.34
57572;BME280;44459;43.522;24.470;2023-05-07T06:18:27;100553.84;;;18.49;63.61
57572;BME280;44459;43.522;24.470;2023-05-07T06:20:52;100555.31;;;18.65;66.35
57572;BME280;44459;43.522;24.470;2023-05-07T06:23:18;100549.25;;;18.95;65.81
57572;BME280;44459;43.522;24.470;2023-05-07T06:25:50;100554.25;;;19.10;65.36
57572;BME280;44459;43.522;24.470;2023-05-07T06:28:16;100549.22;;;19.34;65.82
57572;BME280;44459;43.522;24.470;2023-05-07T06:30:41;100553.88;;;19.64;64.96
57572;BME280;44459;43.522;24.470;2023-05-07T06:33:07;100552.56;;;19.79;62.25
57572;BME280;44459;43.522;24.470;2023-05-07T06:35:32;100554.84;;;19.94;61.09
57572;BME280;44459;43.522;24.470;2023-05-07T06:37:58;100557.72;;;19.86;59.90
57572;BME280;44459;43.522;24.470;2023-05-07T06:40:23;100554.84;;;19.94;55.61
57572;BME280;44459;43.522;24.470;2023-05-07T06:42:48;100547.94;;;20.18;62.29
57572;BME280;44459;43.522;24.470;2023-05-07T06:45:14;100558.41;;;20.27;55.23
57572;BME280;44459;43.522;24.470;2023-05-07T06:47:39;100538.19;;;20.15;57.26
57572;BME280;44459;43.522;24.470;2023-05-07T06:50:05;100546.56;;;20.35;56.30
57572;BME280;44459;43.522;24.470;2023-05-07T06:52:31;100542.56;;;20.50;54.50
57572;BME280;44459;43.522;24.470;2023-05-07T06:54:57;100543.94;;;20.63;53.61
57572;BME280;44459;43.522;24.470;2023-05-07T06:57:22;100553.16;;;20.84;52.88
57572;BME280;44459;43.522;24.470;2023-05-07T06:59:47;100538.59;;;20.92;53.92
57572;BME280;44459;43.522;24.470;2023-05-07T07:02:13;100541.47;;;21.14;54.02
57572;BME280;44459;43.522;24.470;2023-05-07T07:04:38;100546.03;;;21.38;53.34
57572;BME280;44459;43.522;24.470;2023-05-07T07:07:04;100540.94;;;21.31;49.43
57572;BME280;44459;43.522;24.470;2023-05-07T07:09:29;100542.72;;;21.58;52.10
57572;BME280;44459;43.522;24.470;2023-05-07T07:11:55;100553.31;;;21.87;53.63
57572;BME280;44459;43.522;24.470;2023-05-07T07:14:20;100544.44;;;21.85;48.71
57572;BME280;44459;43.522;24.470;2023-05-07T07:16:46;100546.44;;;22.05;47.87
57572;BME280;44459;43.522;24.470;2023-05-07T07:19:12;100549.88;;;22.10;46.69
57572;BME280;44459;43.522;24.470;2023-05-07T07:21:37;100541.19;;;22.27;47.53
57572;BME280;44459;43.522;24.470;2023-05-07T07:24:03;100545.03;;;22.43;45.06
57572;BME280;44459;43.522;24.470;2023-05-07T07:26:28;100541.03;;;22.54;43.17
57572;BME280;44459;43.522;24.470;2023-05-07T07:28:54;100536.56;;;22.53;43.13
57572;BME280;44459;43.522;24.470;2023-05-07T07:31:19;100538.38;;;22.53;42.60
57572;BME280;44459;43.522;24.470;2023-05-07T07:33:45;100539.97;;;22.58;46.37
57572;BME280;44459;43.522;24.470;2023-05-07T07:36:10;100536.28;;;22.84;45.42
57572;BME280;44459;43.522;24.470;2023-05-07T07:38:36;100540.97;;;23.02;45.80
57572;BME280;44459;43.522;24.470;2023-05-07T07:41:01;100547.41;;;23.20;41.54
57572;BME280;44459;43.522;24.470;2023-05-07T07:43:27;100544.25;;;22.87;40.71
57572;BME280;44459;43.522;24.470;2023-05-07T07:45:53;100541.09;;;22.99;42.56
57572;BME280;44459;43.522;24.470;2023-05-07T07:48:18;100550.06;;;23.22;44.90
57572;BME280;44459;43.522;24.470;2023-05-07T07:50:44;100544.03;;;23.15;42.28
57572;BME280;44459;43.522;24.470;2023-05-07T07:53:09;100549.31;;;23.18;42.20
57572;BME280;44459;43.522;24.470;2023-05-07T07:55:39;100547.69;;;23.14;40.29
57572;BME280;44459;43.522;24.470;2023-05-07T07:58:05;100552.06;;;23.17;40.36
57572;BME280;44459;43.522;24.470;2023-05-07T08:00:30;100542.88;;;22.99;38.10
57572;BME280;44459;43.522;24.470;2023-05-07T08:02:56;100543.16;;;22.93;40.72
57572;BME280;44459;43.522;24.470;2023-05-07T08:05:22;100536.63;;;22.77;37.58
57572;BME280;44459;43.522;24.470;2023-05-07T08:07:48;100539.44;;;22.95;39.79
57572;BME280;44459;43.522;24.470;2023-05-07T08:10:18;100542.47;;;23.10;42.50
57572;BME280;44459;43.522;24.470;2023-05-07T08:12:49;100537.47;;;23.00;38.73
57572;BME280;44459;43.522;24.470;2023-05-07T08:15:15;100532.63;;;23.08;39.79
57572;BME280;44459;43.522;24.470;2023-05-07T08:17:41;100535.84;;;23.18;39.74
57572;BME280;44459;43.522;24.470;2023-05-07T08:20:07;100532.88;;;23.02;37.96
57572;BME280;44459;43.522;24.470;2023-05-07T08:22:34;100531.88;;;23.05;39.83
57572;BME280;44459;43.522;24.470;2023-05-07T08:24:59;100534.75;;;23.22;38.95
57572;BME280;44459;43.522;24.470;2023-05-07T08:27:25;100524.75;;;23.47;40.49
57572;BME280;44459;43.522;24.470;2023-05-07T08:29:51;100532.78;;;23.49;40.40
57572;BME280;44459;43.522;24.470;2023-05-07T08:32:16;100530.31;;;23.43;37.45
57572;BME280;44459;43.522;24.470;2023-05-07T08:34:42;100525.13;;;23.38;38.05
57572;BME280;44459;43.522;24.470;2023-05-07T08:37:07;100528.50;;;23.43;37.46
57572;BME280;44459;43.522;24.470;2023-05-07T08:39:32;100526.13;;;23.36;38.19
57572;BME280;44459;43.522;24.470;2023-05-07T08:42:00;100520.00;;;23.32;35.22
57572;BME280;44459;43.522;24.470;2023-05-07T08:44:27;100519.50;;;23.44;36.04
57572;BME280;44459;43.522;24.470;2023-05-07T08:46:56;100518.34;;;23.28;35.31
57572;BME280;44459;43.522;24.470;2023-05-07T08:49:22;100517.81;;;23.42;36.89
57572;BME280;44459;43.522;24.470;2023-05-07T08:51:47;100520.38;;;23.45;35.73
57572;BME280;44459;43.522;24.470;2023-05-07T08:54:15;100518.53;;;23.67;38.74
57572;BME280;44459;43.522;24.470;2023-05-07T08:56:41;100509.47;;;23.68;36.79
57572;BME280;44459;43.522;24.470;2023-05-07T08:59:07;100506.00;;;23.66;34.84
57572;BME280;44459;43.522;24.470;2023-05-07T09:01:32;100513.81;;;23.72;36.13
57572;BME280;44459;43.522;24.470;2023-05-07T09:04:00;100513.38;;;23.61;36.04
57572;BME280;44459;43.522;24.470;2023-05-07T09:06:26;100514.44;;;23.57;35.05
57572;BME280;44459;43.522;24.470;2023-05-07T09:08:53;100512.47;;;23.82;38.40
57572;BME280;44459;43.522;24.470;2023-05-07T09:11:21;100512.44;;;24.02;37.20
57572;BME280;44459;43.522;24.470;2023-05-07T09:13:47;100507.88;;;24.25;36.62
57572;BME280;44459;43.522;24.470;2023-05-07T09:16:13;100508.13;;;24.39;36.22
57572;BME280;44459;43.522;24.470;2023-05-07T09:18:44;100498.44;;;24.53;35.59
57572;BME280;44459;43.522;24.470;2023-05-07T09:21:19;100494.88;;;24.53;34.14
57572;BME280;44459;43.522;24.470;2023-05-07T09:23:45;100494.63;;;24.58;33.88
57572;BME280;44459;43.522;24.470;2023-05-07T09:26:13;100501.41;;;24.47;32.78
57572;BME280;44459;43.522;24.470;2023-05-07T09:28:40;100491.41;;;24.31;33.46
57572;BME280;44459;43.522;24.470;2023-05-07T09:31:07;100494.72;;;24.17;34.50
57572;BME280;44459;43.522;24.470;2023-05-07T09:33:33;100487.38;;;24.00;35.16
57572;BME280;44459;43.522;24.470;2023-05-07T09:36:02;100490.38;;;24.15;35.18
57572;BME280;44459;43.522;24.470;2023-05-07T09:38:28;100488.91;;;24.06;33.19
57572;BME280;44459;43.522;24.470;2023-05-07T09:41:11;100486.94;;;24.30;33.05
57572;BME280;44459;43.522;24.470;2023-05-07T09:43:38;100485.59;;;24.40;33.96
57572;BME280;44459;43.522;24.470;2023-05-07T09:46:14;100484.78;;;24.38;32.67
57572;BME280;44459;43.522;24.470;2023-05-07T09:48:42;100482.28;;;24.15;34.15
57572;BME280;44459;43.522;24.470;2023-05-07T09:53:43;100480.69;;;24.29;34.81
57572;BME280;44459;43.522;24.470;2023-05-07T09:56:09;100482.38;;;24.32;33.71
57572;BME280;44459;43.522;24.470;2023-05-07T09:58:36;100480.81;;;24.26;33.63
57572;BME280;44459;43.522;24.470;2023-05-07T10:01:03;100472.28;;;24.17;32.21
57572;BME280;44459;43.522;24.470;2023-05-07T10:03:30;100478.56;;;23.77;33.95
57572;BME280;44459;43.522;24.470;2023-05-07T10:05:58;100479.13;;;23.43;34.86
57572;BME280;44459;43.522;24.470;2023-05-07T10:08:25;100469.59;;;23.34;35.48
57572;BME280;44459;43.522;24.470;2023-05-07T10:10:50;100473.41;;;23.71;35.14
57572;BME280;44459;43.522;24.470;2023-05-07T10:13:18;100467.47;;;24.03;33.43
57572;BME280;44459;43.522;24.470;2023-05-07T10:15:44;100473.34;;;24.13;33.08
57572;BME280;44459;43.522;24.470;2023-05-07T10:18:11;100468.00;;;24.31;33.34
57572;BME280;44459;43.522;24.470;2023-05-07T10:20:37;100452.75;;;24.49;34.20
57572;BME280;44459;43.522;24.470;2023-05-07T10:23:05;100452.69;;;24.69;33.50
57572;BME280;44459;43.522;24.470;2023-05-07T10:25:32;100450.25;;;25.00;34.10
57572;BME280;44459;43.522;24.470;2023-05-07T10:28:05;100454.59;;;25.22;33.71
57572;BME280;44459;43.522;24.470;2023-05-07T10:33:03;100445.72;;;24.82;31.29
57572;BME280;44459;43.522;24.470;2023-05-07T10:35:36;100438.88;;;24.94;32.23
57572;BME280;44459;43.522;24.470;2023-05-07T10:38:03;100434.31;;;25.13;32.02
57572;BME280;44459;43.522;24.470;2023-05-07T10:40:30;100420.13;;;25.27;35.98
57572;BME280;44459;43.522;24.470;2023-05-07T10:42:57;100426.38;;;25.44;30.90
57572;BME280;44459;43.522;24.470;2023-05-07T10:45:24;100431.00;;;25.42;30.77
57572;BME280;44459;43.522;24.470;2023-05-07T10:48:25;100419.41;;;25.23;30.45
57572;BME280;44459;43.522;24.470;2023-05-07T10:51:20;100424.88;;;25.22;31.46
57572;BME280;44459;43.522;24.470;2023-05-07T10:53:46;100421.84;;;25.28;32.60
57572;BME280;44459;43.522;24.470;2023-05-07T10:58:43;100420.53;;;25.00;31.18
57572;BME280;44459;43.522;24.470;2023-05-07T11:01:09;100414.16;;;24.84;32.12
57572;BME280;44459;43.522;24.470;2023-05-07T11:04:18;100415.47;;;24.94;32.13
57572;BME280;44459;43.522;24.470;2023-05-07T11:15:15;100397.97;;;24.84;31.87
57572;BME280;44459;43.522;24.470;2023-05-07T11:17:58;100399.03;;;24.99;31.88
57572;BME280;44459;43.522;24.470;2023-05-07T11:20:48;100401.72;;;24.99;32.63
57572;BME280;44459;43.522;24.470;2023-05-07T11:26:18;100398.38;;;24.75;30.94
57572;BME280;44459;43.522;24.470;2023-05-07T11:28:44;100391.44;;;24.15;33.46
57572;BME280;44459;43.522;24.470;2023-05-07T11:31:10;100386.84;;;23.97;32.19
57572;BME280;44459;43.522;24.470;2023-05-07T11:33:37;100396.72;;;24.17;34.83
57572;BME280;44459;43.522;24.470;2023-05-07T11:36:04;100398.00;;;24.47;32.53
57572;BME280;44459;43.522;24.470;2023-05-07T11:38:34;100388.88;;;24.49;31.22
57572;BME280;44459;43.522;24.470;2023-05-07T11:41:00;100377.91;;;24.52;33.75
57572;BME280;44459;43.522;24.470;2023-05-07T11:43:31;100378.19;;;24.84;35.22
57572;BME280;44459;43.522;24.470;2023-05-07T11:46:05;100390.31;;;24.92;32.67
57572;BME280;44459;43.522;24.470;2023-05-07T11:48:32;100391.59;;;24.85;32.67
57572;BME280;44459;43.522;24.470;2023-05-07T11:51:04;100395.59;;;24.77;31.80
57572;BME280;44459;43.522;24.470;2023-05-07T11:53:38;100386.78;;;24.73;32.67
57572;BME280;44459;43.522;24.470;2023-05-07T11:56:12;100391.19;;;24.57;32.76
57572;BME280;44459;43.522;24.470;2023-05-07T11:58:38;100386.38;;;24.45;32.46
57572;BME280;44459;43.522;24.470;2023-05-07T12:01:04;100387.31;;;24.63;31.01
57572;BME280;44459;43.522;24.470;2023-05-07T12:03:29;100385.53;;;24.80;33.95
57572;BME280;44459;43.522;24.470;2023-05-07T12:05:55;100381.31;;;25.11;35.16
57572;BME280;44459;43.522;24.470;2023-05-07T12:08:21;100389.72;;;25.39;33.27
57572;BME280;44459;43.522;24.470;2023-05-07T12:10:49;100386.44;;;25.51;31.68
57572;BME280;44459;43.522;24.470;2023-05-07T12:13:24;100377.19;;;25.55;30.97
57572;BME280;44459;43.522;24.470;2023-05-07T12:15:55;100379.31;;;25.66;32.82
57572;BME280;44459;43.522;24.470;2023-05-07T12:18:21;100372.22;;;25.80;32.34
57572;BME280;44459;43.522;24.470;2023-05-07T12:20:47;100375.75;;;25.98;30.97
57572;BME280;44459;43.522;24.470;2023-05-07T12:23:14;100373.31;;;26.09;32.13
57572;BME280;44459;43.522;24.470;2023-05-07T12:25:40;100359.88;;;26.08;30.77
57572;BME280;44459;43.522;24.470;2023-05-07T12:28:14;100358.63;;;25.82;30.55
57572;BME280;44459;43.522;24.470;2023-05-07T12:30:42;100361.38;;;25.80;31.58
57572;BME280;44459;43.522;24.470;2023-05-07T12:33:08;100359.50;;;25.98;33.29
57572;BME280;44459;43.522;24.470;2023-05-07T12:35:40;100354.56;;;26.06;31.73
57572;BME280;44459;43.522;24.470;2023-05-07T12:38:10;100354.81;;;26.01;30.96
57572;BME280;44459;43.522;24.470;2023-05-07T12:43:02;100343.38;;;25.64;29.82
57572;BME280;44459;43.522;24.470;2023-05-07T12:45:28;100349.16;;;25.73;31.43
57572;BME280;44459;43.522;24.470;2023-05-07T12:47:53;100344.13;;;25.33;30.19
57572;BME280;44459;43.522;24.470;2023-05-07T12:50:19;100343.16;;;25.17;31.58
57572;BME280;44459;43.522;24.470;2023-05-07T12:52:47;100345.00;;;25.33;32.32
57572;BME280;44459;43.522;24.470;2023-05-07T12:55:17;100340.13;;;25.40;30.68
57572;BME280;44459;43.522;24.470;2023-05-07T12:57:49;100324.88;;;25.22;31.86
57572;BME280;44459;43.522;24.470;2023-05-07T13:00:32;100347.94;;;25.29;31.55